createdAt,value
2016-11-29T00:04:54.323Z,22
2016-11-29T00:09:58.414Z,22
2016-11-29T00:15:02.838Z,21.9
2016-11-29T00:20:06.923Z,21.9
2016-11-29T00:25:11.686Z,21.9
2016-11-29T00:30:16.450Z,21.9
2016-11-29T00:35:20.539Z,21.9
2016-11-29T00:40:24.962Z,21.9
2016-11-29T00:45:29.049Z,21.9
2016-11-29T00:50:33.132Z,21.9
2016-11-29T00:55:37.218Z,21.8
2016-11-29T01:00:41.638Z,21.8
2016-11-29T01:05:46.071Z,21.8
2016-11-29T01:10:50.167Z,21.8
2016-11-29T01:15:54.594Z,21.8
2016-11-29T01:20:58.686Z,21.8
2016-11-29T01:26:02.769Z,21.8
2016-11-29T01:31:07.195Z,21.7
2016-11-29T01:36:12.292Z,21.7
2016-11-29T01:41:16.381Z,21.7
2016-11-29T01:46:21.136Z,21.7
2016-11-29T01:51:25.898Z,21.7
2016-11-29T01:56:29.992Z,21.7
2016-11-29T02:01:34.741Z,21.7
2016-11-29T02:06:39.164Z,21.7
2016-11-29T02:11:43.582Z,21.6
2016-11-29T02:16:48.017Z,21.6
2016-11-29T02:21:52.104Z,21.6
2016-11-29T02:26:56.534Z,21.6
2016-11-29T02:32:00.625Z,21.6
2016-11-29T02:37:04.722Z,21.6
2016-11-29T02:42:08.799Z,21.6
2016-11-29T02:47:12.883Z,21.6
2016-11-29T02:52:16.979Z,21.6
2016-11-29T02:57:21.394Z,21.5
2016-11-29T03:02:25.813Z,21.5
2016-11-29T03:07:29.894Z,21.5
2016-11-29T03:12:34.658Z,21.5
2016-11-29T03:17:38.741Z,21.5
2016-11-29T03:22:43.159Z,21.5
2016-11-29T03:27:47.244Z,21.5
2016-11-29T03:32:51.669Z,21.5
2016-11-29T03:37:56.423Z,21.5
2016-11-29T03:43:01.524Z,21.5
2016-11-29T03:48:06.274Z,21.5
2016-11-29T03:53:10.695Z,21.5
2016-11-29T03:58:15.127Z,21.5
2016-11-29T04:03:19.207Z,21.5
2016-11-29T04:08:23.637Z,21.4
2016-11-29T04:13:28.070Z,21.4
2016-11-29T04:18:32.490Z,21.4
2016-11-29T04:23:36.907Z,21.4
2016-11-29T04:28:40.988Z,21.4
2016-11-29T04:33:45.077Z,21.4
2016-11-29T04:38:49.497Z,21.3
2016-11-29T04:43:53.917Z,21.4
2016-11-29T04:48:58.350Z,21.4
2016-11-29T04:54:02.429Z,21.4
2016-11-29T04:59:06.847Z,21.4
2016-11-29T05:04:11.269Z,21.4
2016-11-29T05:09:15.363Z,21.4
2016-11-29T05:14:19.798Z,21.4
2016-11-29T05:19:24.228Z,21.4
2016-11-29T05:24:28.650Z,21.4
2016-11-29T05:29:33.418Z,21.4
2016-11-29T05:34:37.568Z,21.3
2016-11-29T05:39:41.656Z,21.3
2016-11-29T05:44:46.430Z,21.3
2016-11-29T05:49:50.515Z,21.3
2016-11-29T05:54:54.938Z,21.3
2016-11-29T05:59:59.350Z,21.3
2016-11-29T06:05:03.596Z,21.4
2016-11-29T06:10:07.686Z,21.5
2016-11-29T06:15:12.102Z,21.6
2016-11-29T06:20:16.185Z,21.6
2016-11-29T06:25:20.269Z,21.7
2016-11-29T06:30:24.701Z,21.7
2016-11-29T06:35:29.330Z,21.7
2016-11-29T06:40:33.417Z,21.8
2016-11-29T06:45:37.839Z,21.9
2016-11-29T06:50:42.593Z,21.9
2016-11-29T06:55:47.692Z,21.9
2016-11-29T07:00:52.116Z,21.8
2016-11-29T07:05:56.197Z,21.8
2016-11-29T07:11:00.291Z,21.8
2016-11-29T07:16:04.713Z,21.8
2016-11-29T07:21:09.124Z,21.8
2016-11-29T07:26:13.212Z,21.8
2016-11-29T07:31:17.454Z,21.7
2016-11-29T07:36:21.543Z,21.7
2016-11-29T07:41:25.971Z,21.7
2016-11-29T07:46:30.061Z,21.7
2016-11-29T07:51:34.935Z,21.7
2016-11-29T07:56:39.022Z,21.8
2016-11-29T08:01:43.103Z,21.8
2016-11-29T08:06:47.198Z,21.9
2016-11-29T08:11:51.624Z,21.9
2016-11-29T08:16:55.720Z,21.9
2016-11-29T08:22:00.478Z,22
2016-11-29T08:27:04.911Z,22
2016-11-29T08:32:08.986Z,22
2016-11-29T08:37:13.074Z,22.1
2016-11-29T08:42:17.841Z,22.1
2016-11-29T08:47:22.247Z,22.1
2016-11-29T08:52:26.332Z,22.1
2016-11-29T08:57:30.415Z,22.1
2016-11-29T09:02:35.189Z,22.1
2016-11-29T09:07:39.606Z,22.1
2016-11-29T09:12:44.363Z,22.1
2016-11-29T09:17:48.777Z,22.2
2016-11-29T09:22:52.866Z,22.2
2016-11-29T09:27:56.944Z,22.2
2016-11-29T09:33:01.371Z,22.2
2016-11-29T09:38:06.126Z,22.2
2016-11-29T09:43:10.212Z,22.2
2016-11-29T09:48:14.294Z,22.3
2016-11-29T09:53:18.721Z,22.3
2016-11-29T09:58:23.143Z,22.3
2016-11-29T10:03:27.570Z,22.3
2016-11-29T10:08:31.657Z,22.3
2016-11-29T10:13:36.753Z,22.4
2016-11-29T10:18:41.171Z,22.4
2016-11-29T10:23:45.592Z,22.4
2016-11-29T10:28:49.674Z,22.4
2016-11-29T10:33:54.433Z,22.5
2016-11-29T10:38:58.865Z,22.5
2016-11-29T10:44:03.289Z,22.5
2016-11-29T10:49:07.378Z,22.5
2016-11-29T10:54:11.800Z,22.5
2016-11-29T10:59:16.566Z,22.5
2016-11-29T11:04:20.990Z,22.5
2016-11-29T11:09:25.417Z,22.5
2016-11-29T11:14:30.173Z,22.5
2016-11-29T11:19:34.268Z,22.5
2016-11-29T11:24:38.351Z,22.5
2016-11-29T11:29:43.114Z,22.5
2016-11-29T11:34:47.538Z,22.6
2016-11-29T11:39:51.969Z,22.6
2016-11-29T11:44:56.057Z,22.7
2016-11-29T11:50:00.150Z,22.7
2016-11-29T11:55:04.575Z,22.8
2016-11-29T12:00:08.672Z,22.8
2016-11-29T12:05:12.760Z,22.8
2016-11-29T12:10:16.855Z,22.9
2016-11-29T12:15:20.949Z,22.9
2016-11-29T12:20:25.717Z,22.9
2016-11-29T12:25:30.139Z,23
2016-11-29T12:30:34.568Z,23
2016-11-29T12:35:38.661Z,23
2016-11-29T12:40:42.759Z,23.1
2016-11-29T12:45:46.865Z,23.1
2016-11-29T12:50:52.202Z,23.1
2016-11-29T12:55:56.630Z,23.1
2016-11-29T13:01:00.726Z,23.1
2016-11-29T13:06:05.153Z,23.1
2016-11-29T13:11:09.930Z,23.1
2016-11-29T13:16:14.018Z,23.1
2016-11-29T13:21:18.465Z,23.1
2016-11-29T13:26:22.547Z,23.1
2016-11-29T13:31:26.974Z,23.1
2016-11-29T13:36:31.073Z,23.1
2016-11-29T13:41:35.685Z,23.1
2016-11-29T13:46:40.028Z,23
2016-11-29T13:51:44.114Z,23
2016-11-29T13:56:48.537Z,23
2016-11-29T14:01:52.626Z,22.9
2016-11-29T14:06:57.050Z,22.9
2016-11-29T14:12:01.139Z,22.9
2016-11-29T14:17:05.236Z,22.9
2016-11-29T14:22:09.993Z,22.9
2016-11-29T14:27:14.077Z,22.8
2016-11-29T14:32:18.503Z,22.8
2016-11-29T14:37:22.585Z,22.8
2016-11-29T14:42:27.353Z,22.8
2016-11-29T14:47:31.444Z,22.8
2016-11-29T14:52:35.586Z,22.8
2016-11-29T14:57:39.723Z,22.8
2016-11-29T15:02:43.847Z,22.8
2016-11-29T15:07:48.318Z,22.8
2016-11-29T15:12:52.406Z,22.7
2016-11-29T15:17:56.862Z,22.7
2016-11-29T15:23:00.956Z,22.7
2016-11-29T15:28:05.725Z,22.7
2016-11-29T15:33:10.158Z,22.7
2016-11-29T15:38:14.248Z,22.7
2016-11-29T15:43:18.337Z,22.7
2016-11-29T15:48:22.433Z,22.7
2016-11-29T15:53:26.521Z,22.7
2016-11-29T15:58:31.246Z,22.7
2016-11-29T16:03:35.890Z,22.7
2016-11-29T16:08:39.982Z,22.7
2016-11-29T16:13:44.424Z,22.6
2016-11-29T16:18:48.511Z,22.6
2016-11-29T16:23:53.270Z,22.5
2016-11-29T16:28:57.356Z,22.5
2016-11-29T16:34:01.781Z,22.3
2016-11-29T16:39:06.089Z,22.3
2016-11-29T16:44:10.231Z,22.3
2016-11-29T16:49:14.320Z,22.3
2016-11-29T16:54:18.414Z,22.3
2016-11-29T16:59:22.828Z,22.3
2016-11-29T17:04:27.267Z,22.4
2016-11-29T17:09:31.343Z,22.4
2016-11-29T17:14:35.445Z,22.4
2016-11-29T17:19:39.737Z,22.4
2016-11-29T17:24:43.813Z,22.4
2016-11-29T17:30:00.170Z,22.4
2016-11-29T17:35:04.301Z,22.4
2016-11-29T17:40:08.721Z,22.4
2016-11-29T17:45:13.147Z,22.4
2016-11-29T17:50:17.233Z,22.4
2016-11-29T17:55:21.317Z,22.4
2016-11-29T18:00:25.747Z,22.4
2016-11-29T18:05:29.850Z,22.4
2016-11-29T18:10:34.304Z,22.4
2016-11-29T18:15:38.420Z,22.4
2016-11-29T18:20:42.510Z,22.3
2016-11-29T18:25:47.276Z,22.3
2016-11-29T18:30:51.373Z,22.3
2016-11-29T18:35:55.471Z,22.3
2016-11-29T18:40:59.880Z,22.3
2016-11-29T18:46:03.994Z,22.4
2016-11-29T18:51:08.078Z,22.4
2016-11-29T18:56:12.714Z,22.4
2016-11-29T19:01:16.806Z,22.4
2016-11-29T19:06:20.905Z,22.4
2016-11-29T19:11:25.338Z,22.4
2016-11-29T19:16:29.443Z,22.4
2016-11-29T19:21:33.869Z,22.4
2016-11-29T19:26:37.961Z,22.3
2016-11-29T19:31:42.051Z,22.3
2016-11-29T19:36:46.476Z,22.3
2016-11-29T19:41:50.565Z,22.4
2016-11-29T19:46:54.653Z,22.4
2016-11-29T19:51:59.409Z,22.4
2016-11-29T19:57:03.836Z,22.4
2016-11-29T20:02:08.265Z,22.4
2016-11-29T20:07:12.688Z,22.4
2016-11-29T20:12:17.117Z,22.5
2016-11-29T20:17:21.544Z,22.4
2016-11-29T20:22:26.168Z,22.4
2016-11-29T20:27:30.945Z,22.4
2016-11-29T20:32:35.041Z,22.4
2016-11-29T20:37:39.472Z,22.4
2016-11-29T20:42:44.244Z,22.4
2016-11-29T20:47:48.674Z,22.4
2016-11-29T20:52:52.759Z,22.4
2016-11-29T20:57:57.187Z,22.4
2016-11-29T21:03:01.605Z,22.4
2016-11-29T21:08:05.696Z,22.4
2016-11-29T21:13:09.808Z,22.4
2016-11-29T21:18:14.224Z,22.4
2016-11-29T21:23:18.324Z,22.4
2016-11-29T21:28:23.105Z,22.4
2016-11-29T21:33:27.490Z,22.4
2016-11-29T21:38:31.907Z,22.3
2016-11-29T21:43:35.997Z,22.3
2016-11-29T21:48:41.102Z,22.3
2016-11-29T21:53:45.549Z,22.3
2016-11-29T21:58:49.869Z,22.3
2016-11-29T22:03:54.292Z,22.3
2016-11-29T22:08:58.377Z,22.3
2016-11-29T22:14:02.469Z,22.2
2016-11-29T22:19:06.554Z,22.2
2016-11-29T22:24:10.976Z,22.2
2016-11-29T22:29:15.062Z,22.1
2016-11-29T22:34:19.153Z,22.1
2016-11-29T22:39:23.577Z,22.1
2016-11-29T22:44:28.331Z,22
2016-11-29T22:49:33.087Z,22
2016-11-29T22:54:37.504Z,22
2016-11-29T22:59:41.587Z,21.9
2016-11-29T23:04:45.670Z,21.9
2016-11-29T23:09:49.762Z,21.9
2016-11-29T23:14:53.847Z,21.9
2016-11-29T23:19:58.257Z,21.9
2016-11-29T23:25:03.353Z,21.8
2016-11-29T23:30:07.778Z,21.8
2016-11-29T23:35:11.860Z,21.8
2016-11-29T23:40:15.944Z,21.8
2016-11-29T23:45:20.694Z,21.8
2016-11-29T23:50:24.792Z,21.8
2016-11-29T23:55:29.212Z,21.7
